Aérodrome :
LOGIN :

S'inscrire | Disclaimer

   EN    FR    IT 

 










Légende :    VFR   VFR Marginal   IFR   IFR Intensif   IFR Très Intensif
Visi : 
Plafond : 
>= 8 km
>= 3000ft
5 à 8 km
1000 à 3000 ft
1500m à 5 km
500 à 1000 ft
800 à 1500m
200 à 500 ft
< 800m
< 200 ft
Symboles :   Orages  Brouillard  Fortes neiges  Fortes précipitations  Vent > 20 kt
SIGMETs :   Divers  Orages  Givrage  Turbulence  Onde Orograph.  Cendres Volcan.







- Altitude de l'aérodrome : 1989 ft
- Code IATA : KLV


LKKV - Karlovy Vary

DERNIER METAR :
  • 161600Z 29010KT 250V340 CAVOK 21/07 Q1016

METARs EXPIRÉS :
  • 161530Z 28007KT 240V320 CAVOK 21/07 Q1016
  • 161500Z 30011KT 270V330 CAVOK 20/08 Q1016
  • 161430Z 28009KT 200V310 CAVOK 20/08 Q1016
  • 161400Z 28009KT 210V320 9999 FEW026 20/09 Q1016
  • 161330Z 29010KT 250V330 9999 FEW026 18/09 Q1016

TAF TAF LKKV
Valide du 16 à 12h jusqu'au 17 à 18h UTC


161100Z 1612/1718 30006KT 9999 SCT033
TEMPO 1612/1618 32012G22KT 7000 -SHRA BKN026
BECMG 1621/1623 VRB02KT
BECMG 1706/1708 33006KT 9999 SCT033
TEMPO 1708/1718 7000 -SHRA BKN026
PROB30
TEMPO 1712/1718 6000 SHRA SCT036TCU
Pas de NOTAMs connus pour ce terrain.



MET'MAP, la Météo Aéronautique d'un coup d'oeil ! - Copyright ORBIFLY Décembre 2007 - Disclaimer

ORBIFLY MET'MAP TEAM :

Programmation & Développement : Alexandra Zaïnal
Conception & Développement : Baudouin d'Aumeries
Co-Programmation & Développement : Marc-Olivier Méhu
Soutien technique & logistique : Manuel Goepfert

Contact : metmap@orbifly.com




SOURCES & CREDITS :

   NOAA